Weather at Málaga-Costa del Sol Airport

Public forecast

Using degrees Celsius for public forecast. Weather courtesy of forecast.io.

Current aviation weather report (METAR) for Málaga-Costa del Sol Airport

Retrieved 2022/01/22 20:30 UTC (7 minutes ago):

LEMG 222030Z 11009KT 9999 FEW026 SCT030 14/09 Q1026 NOSIG

Aviation forecast (TAF) for Málaga-Costa del Sol Airport

Retrieved 2022/01/22 18:26 UTC (2 hours ago):

TAF LEMG 221700Z 2218/2318 11015KT 9999 SCT020 BKN030 TX15/2314Z TN13/2306Z PROB30 TEMPO 2220/2302 11015G25KT BECMG 2304/2306 VRB03KT